Time,TemperatureF,DewpointF,PressureIn,WindDirection,WindDirectionDegrees,WindSpeedMPH,WindSpeedGustMPH,Humidity,HourlyPrecipIn,Conditions,Clouds,dailyrainin,SoftwareType,DateUTC
2013-09-14 00:02:00,64.0,-99.9,-100.00,North,-999,-999.0,-999.0,-999,-99.99,,,0.11,,2013-09-14 06:02:00,
2013-09-14 00:12:00,64.0,-99.9,-100.00,North,-999,-999.0,-999.0,-999,-99.99,,,0.11,,2013-09-14 06:12:00,
2013-09-14 00:22:00,64.0,-99.9,-100.00,North,-999,-999.0,-999.0,-999,-99.99,,,0.11,,2013-09-14 06:22:00,
2013-09-14 00:30:00,65.0,-99.9,-100.00,North,-999,-999.0,-999.0,-999,0.02,,,0.13,,2013-09-14 06:30:00,
2013-09-14 00:52:00,65.0,-99.9,-100.00,North,-999,-999.0,-999.0,-999,0.02,,,0.13,,2013-09-14 06:52:00,
2013-09-14 01:02:00,65.0,-99.9,-100.00,North,-999,-999.0,-999.0,-999,0.02,,,0.13,,2013-09-14 07:02:00,
2013-09-14 01:12:00,65.0,-99.9,-100.00,North,-999,-999.0,-999.0,-999,0.02,,,0.13,,2013-09-14 07:12:00,
2013-09-14 01:22:00,65.0,-99.9,-100.00,North,-999,-999.0,-999.0,-999,0.02,,,0.13,,2013-09-14 07:22:00,
2013-09-14 01:30:00,67.0,-99.9,-100.00,North,-999,-999.0,-999.0,-999,0.02,,,0.04,,2013-09-14 07:30:00,
2013-09-14 01:52:00,67.0,-99.9,-100.00,North,-999,-999.0,-999.0,-999,0.02,,,0.04,,2013-09-14 07:52:00,
2013-09-14 02:02:00,67.0,-99.9,-100.00,North,-999,-999.0,-999.0,-999,0.02,,,0.04,,2013-09-14 08:02:00,
2013-09-14 02:12:00,67.0,-99.9,-100.00,North,-999,-999.0,-999.0,-999,0.02,,,0.04,,2013-09-14 08:12:00,
2013-09-14 02:22:00,67.0,-99.9,-100.00,North,-999,-999.0,-999.0,-999,0.02,,,0.04,,2013-09-14 08:22:00,
2013-09-14 02:30:00,69.0,-99.9,-100.00,North,-999,-999.0,-999.0,-999,0.00,,,0.04,,2013-09-14 08:30:00,
2013-09-14 02:52:00,69.0,-99.9,-100.00,North,-999,-999.0,-999.0,-999,0.00,,,0.04,,2013-09-14 08:52:00,
2013-09-14 03:02:00,69.0,-99.9,-100.00,North,-999,-999.0,-999.0,-999,0.00,,,0.04,,2013-09-14 09:02:00,
2013-09-14 03:12:00,69.0,-99.9,-100.00,North,-999,-999.0,-999.0,-999,0.00,,,0.04,,2013-09-14 09:12:00,
2013-09-14 03:22:00,69.0,-99.9,-100.00,North,-999,-999.0,-999.0,-999,0.00,,,0.04,,2013-09-14 09:22:00,
2013-09-14 03:30:00,70.0,-99.9,-100.00,North,-999,-999.0,-999.0,-999,0.00,,,0.04,,2013-09-14 09:30:00,
2013-09-14 03:54:00,70.0,-99.9,-100.00,North,-999,-999.0,-999.0,-999,0.00,,,0.04,,2013-09-14 09:54:00,
2013-09-14 04:03:00,70.0,-99.9,-100.00,North,-999,-999.0,-999.0,-999,0.00,,,0.04,,2013-09-14 10:03:00,
2013-09-14 04:13:00,70.0,-99.9,-100.00,North,-999,-999.0,-999.0,-999,0.00,,,0.04,,2013-09-14 10:13:00,
2013-09-14 04:24:00,70.0,-99.9,-100.00,North,-999,-999.0,-999.0,-999,0.00,,,0.04,,2013-09-14 10:24:00,
2013-09-14 04:30:00,69.0,-99.9,-100.00,North,-999,-999.0,-999.0,-999,-99.99,,,0.01,,2013-09-14 10:30:00,
2013-09-14 04:53:00,69.0,-99.9,-100.00,North,-999,-999.0,-999.0,-999,-99.99,,,0.01,,2013-09-14 10:53:00,
2013-09-14 05:03:00,69.0,-99.9,-100.00,North,-999,-999.0,-999.0,-999,-99.99,,,0.01,,2013-09-14 11:03:00,
2013-09-14 05:12:00,69.0,-99.9,-100.00,North,-999,-999.0,-999.0,-999,-99.99,,,0.01,,2013-09-14 11:12:00,
2013-09-14 05:22:00,69.0,-99.9,-100.00,North,-999,-999.0,-999.0,-999,-99.99,,,0.01,,2013-09-14 11:22:00,
2013-09-14 06:30:00,68.0,-99.9,-100.00,North,-999,-999.0,-999.0,-999,-99.99,,,0.01,,2013-09-14 12:30:00,
2013-09-14 06:53:00,68.0,-99.9,-100.00,North,-999,-999.0,-999.0,-999,-99.99,,,0.01,,2013-09-14 12:53:00,
2013-09-14 07:02:00,68.0,-99.9,-100.00,North,-999,-999.0,-999.0,-999,-99.99,,,0.01,,2013-09-14 13:02:00,
2013-09-14 07:12:00,68.0,-99.9,-100.00,North,-999,-999.0,-999.0,-999,-99.99,,,0.01,,2013-09-14 13:12:00,
2013-09-14 07:22:00,68.0,-99.9,-100.00,North,-999,-999.0,-999.0,-999,-99.99,,,0.01,,2013-09-14 13:22:00,
2013-09-14 07:30:00,67.0,-99.9,-100.00,North,-999,-999.0,-999.0,-999,0.00,,,0.00,,2013-09-14 13:30:00,
2013-09-14 07:52:00,67.0,-99.9,-100.00,North,-999,-999.0,-999.0,-999,0.00,,,0.00,,2013-09-14 13:52:00,
2013-09-14 08:02:00,67.0,-99.9,-100.00,North,-999,-999.0,-999.0,-999,0.00,,,0.00,,2013-09-14 14:02:00,
2013-09-14 08:12:00,67.0,-99.9,-100.00,North,-999,-999.0,-999.0,-999,0.00,,,0.00,,2013-09-14 14:12:00,
2013-09-14 08:22:00,67.0,-99.9,-100.00,North,-999,-999.0,-999.0,-999,0.00,,,0.00,,2013-09-14 14:22:00,
2013-09-14 08:30:00,68.0,-99.9,-100.00,North,-999,-999.0,-999.0,-999,-99.99,,,0.00,,2013-09-14 14:30:00,
2013-09-14 08:52:00,68.0,-99.9,-100.00,North,-999,-999.0,-999.0,-999,-99.99,,,0.00,,2013-09-14 14:52:00,
2013-09-14 09:02:00,68.0,-99.9,-100.00,North,-999,-999.0,-999.0,-999,-99.99,,,0.00,,2013-09-14 15:02:00,
2013-09-14 09:11:00,68.0,-99.9,-100.00,North,-999,-999.0,-999.0,-999,-99.99,,,0.00,,2013-09-14 15:11:00,
2013-09-14 09:22:00,68.0,-99.9,-100.00,North,-999,-999.0,-999.0,-999,-99.99,,,0.00,,2013-09-14 15:22:00,
2013-09-14 09:30:00,74.0,-99.9,-100.00,North,-999,-999.0,-999.0,-999,0.04,,,0.04,,2013-09-14 15:30:00,
2013-09-14 09:53:00,74.0,-99.9,-100.00,North,-999,-999.0,-999.0,-999,0.04,,,0.04,,2013-09-14 15:53:00,
2013-09-14 10:04:00,74.0,-99.9,-100.00,North,-999,-999.0,-999.0,-999,0.04,,,0.04,,2013-09-14 16:04:00,
2013-09-14 10:14:00,74.0,-99.9,-100.00,North,-999,-999.0,-999.0,-999,0.04,,,0.04,,2013-09-14 16:14:00,
2013-09-14 10:24:00,74.0,-99.9,-100.00,North,-999,-999.0,-999.0,-999,0.04,,,0.04,,2013-09-14 16:24:00,
2013-09-14 10:30:00,77.0,-99.9,-100.00,North,-999,-999.0,-999.0,-999,-99.99,,,0.00,,2013-09-14 16:30:00,
2013-09-14 10:54:00,77.0,-99.9,-100.00,North,-999,-999.0,-999.0,-999,-99.99,,,0.00,,2013-09-14 16:54:00,
2013-09-14 11:04:00,77.0,-99.9,-100.00,North,-999,-999.0,-999.0,-999,-99.99,,,0.00,,2013-09-14 17:04:00,
2013-09-14 11:12:00,77.0,-99.9,-100.00,North,-999,-999.0,-999.0,-999,-99.99,,,0.00,,2013-09-14 17:12:00,
2013-09-14 11:24:00,77.0,-99.9,-100.00,North,-999,-999.0,-999.0,-999,-99.99,,,0.00,,2013-09-14 17:24:00,
2013-09-14 11:30:00,82.0,-99.9,-100.00,North,-999,-999.0,-999.0,-999,0.04,,,0.04,,2013-09-14 17:30:00,
2013-09-14 11:54:00,82.0,-99.9,-100.00,North,-999,-999.0,-999.0,-999,0.04,,,0.04,,2013-09-14 17:54:00,
2013-09-14 12:02:00,82.0,-99.9,-100.00,North,-999,-999.0,-999.0,-999,0.04,,,0.04,,2013-09-14 18:02:00,
2013-09-14 12:12:00,82.0,-99.9,-100.00,North,-999,-999.0,-999.0,-999,0.04,,,0.04,,2013-09-14 18:12:00,
2013-09-14 12:22:00,82.0,-99.9,-100.00,North,-999,-999.0,-999.0,-999,0.04,,,0.04,,2013-09-14 18:22:00,
2013-09-14 12:30:00,86.0,-99.9,-100.00,North,-999,-999.0,-999.0,-999,-99.99,,,0.00,,2013-09-14 18:30:00,
2013-09-14 13:12:00,86.0,-99.9,-100.00,North,-999,-999.0,-999.0,-999,-99.99,,,0.00,,2013-09-14 19:12:00,
2013-09-14 13:22:00,86.0,-99.9,-100.00,North,-999,-999.0,-999.0,-999,-99.99,,,0.00,,2013-09-14 19:22:00,
2013-09-14 13:30:00,88.0,-99.9,-100.00,North,-999,-999.0,-999.0,-999,0.00,,,0.00,,2013-09-14 19:30:00,
2013-09-14 13:52:00,88.0,-99.9,-100.00,North,-999,-999.0,-999.0,-999,0.00,,,0.00,,2013-09-14 19:52:00,
2013-09-14 14:02:00,88.0,-99.9,-100.00,North,-999,-999.0,-999.0,-999,0.00,,,0.00,,2013-09-14 20:02:00,
2013-09-14 14:12:00,88.0,-99.9,-100.00,North,-999,-999.0,-999.0,-999,0.00,,,0.00,,2013-09-14 20:12:00,
2013-09-14 14:22:00,88.0,-99.9,-100.00,North,-999,-999.0,-999.0,-999,0.00,,,0.00,,2013-09-14 20:22:00,
2013-09-14 14:30:00,87.0,-99.9,-100.00,North,-999,-999.0,-999.0,-999,0.04,,,0.04,,2013-09-14 20:30:00,
2013-09-14 14:52:00,87.0,-99.9,-100.00,North,-999,-999.0,-999.0,-999,0.04,,,0.04,,2013-09-14 20:52:00,
2013-09-14 15:02:00,87.0,-99.9,-100.00,North,-999,-999.0,-999.0,-999,0.04,,,0.04,,2013-09-14 21:02:00,
2013-09-14 15:12:00,87.0,-99.9,-100.00,North,-999,-999.0,-999.0,-999,0.04,,,0.04,,2013-09-14 21:12:00,
2013-09-14 15:22:00,87.0,-99.9,-100.00,North,-999,-999.0,-999.0,-999,0.04,,,0.04,,2013-09-14 21:22:00,
2013-09-14 15:30:00,85.0,-99.9,-100.00,North,-999,-999.0,-999.0,-999,-99.99,,,0.00,,2013-09-14 21:30:00,
2013-09-14 15:54:00,85.0,-99.9,-100.00,North,-999,-999.0,-999.0,-999,-99.99,,,0.00,,2013-09-14 21:54:00,
2013-09-14 16:04:00,85.0,-99.9,-100.00,North,-999,-999.0,-999.0,-999,-99.99,,,0.00,,2013-09-14 22:04:00,
2013-09-14 16:13:00,85.0,-99.9,-100.00,North,-999,-999.0,-999.0,-999,-99.99,,,0.00,,2013-09-14 22:13:00,
2013-09-14 16:24:00,85.0,-99.9,-100.00,North,-999,-999.0,-999.0,-999,-99.99,,,0.00,,2013-09-14 22:24:00,
2013-09-14 16:30:00,84.0,-99.9,-100.00,North,-999,-999.0,-999.0,-999,0.02,,,0.02,,2013-09-14 22:30:00,
2013-09-14 16:53:00,84.0,-99.9,-100.00,North,-999,-999.0,-999.0,-999,0.02,,,0.02,,2013-09-14 22:53:00,
2013-09-14 17:03:00,84.0,-99.9,-100.00,North,-999,-999.0,-999.0,-999,0.02,,,0.02,,2013-09-14 23:03:00,
2013-09-14 17:12:00,84.0,-99.9,-100.00,North,-999,-999.0,-999.0,-999,0.02,,,0.02,,2013-09-14 23:12:00,
2013-09-14 17:23:00,84.0,-99.9,-100.00,North,-999,-999.0,-999.0,-999,0.02,,,0.02,,2013-09-14 23:23:00,
2013-09-14 17:30:00,86.0,-99.9,-100.00,North,-999,-999.0,-999.0,-999,-99.99,,,0.01,,2013-09-14 23:30:00,
2013-09-14 17:53:00,86.0,-99.9,-100.00,North,-999,-999.0,-999.0,-999,-99.99,,,0.01,,2013-09-14 23:53:00,
2013-09-14 18:02:00,86.0,-99.9,-100.00,North,-999,-999.0,-999.0,-999,-99.99,,,0.01,,2013-09-15 00:02:00,
2013-09-14 18:12:00,86.0,-99.9,-100.00,North,-999,-999.0,-999.0,-999,-99.99,,,0.01,,2013-09-15 00:12:00,
2013-09-14 18:22:00,86.0,-99.9,-100.00,North,-999,-999.0,-999.0,-999,-99.99,,,0.01,,2013-09-15 00:22:00,
2013-09-14 18:30:00,85.0,-99.9,-100.00,North,-999,-999.0,-999.0,-999,0.02,,,0.03,,2013-09-15 00:30:00,
2013-09-14 18:53:00,85.0,-99.9,-100.00,North,-999,-999.0,-999.0,-999,0.02,,,0.03,,2013-09-15 00:53:00,
2013-09-14 19:01:00,85.0,-99.9,-100.00,North,-999,-999.0,-999.0,-999,0.02,,,0.03,,2013-09-15 01:01:00,
2013-09-14 19:12:00,85.0,-99.9,-100.00,North,-999,-999.0,-999.0,-999,0.02,,,0.03,,2013-09-15 01:12:00,
2013-09-14 19:22:00,85.0,-99.9,-100.00,North,-999,-999.0,-999.0,-999,0.02,,,0.03,,2013-09-15 01:22:00,
2013-09-14 19:30:00,83.0,-99.9,-100.00,North,-999,-999.0,-999.0,-999,-99.99,,,0.01,,2013-09-15 01:30:00,
2013-09-14 19:52:00,83.0,-99.9,-100.00,North,-999,-999.0,-999.0,-999,-99.99,,,0.01,,2013-09-15 01:52:00,
2013-09-14 20:03:00,83.0,-99.9,-100.00,North,-999,-999.0,-999.0,-999,-99.99,,,0.01,,2013-09-15 02:03:00,
2013-09-14 20:12:00,83.0,-99.9,-100.00,North,-999,-999.0,-999.0,-999,-99.99,,,0.01,,2013-09-15 02:12:00,
2013-09-14 20:22:00,83.0,-99.9,-100.00,North,-999,-999.0,-999.0,-999,-99.99,,,0.01,,2013-09-15 02:22:00,
2013-09-14 21:30:00,76.0,-99.9,-100.00,North,-999,-999.0,-999.0,-999,-99.99,,,0.01,,2013-09-15 03:30:00,
2013-09-14 21:55:00,76.0,-99.9,-100.00,North,-999,-999.0,-999.0,-999,-99.99,,,0.01,,2013-09-15 03:55:00,
2013-09-14 22:14:00,76.0,-99.9,-100.00,North,-999,-999.0,-999.0,-999,-99.99,,,0.01,,2013-09-15 04:14:00,
2013-09-14 22:24:00,76.0,-99.9,-100.00,North,-999,-999.0,-999.0,-999,-99.99,,,0.01,,2013-09-15 04:24:00,
2013-09-14 22:30:00,76.0,-99.9,-100.00,North,-999,-999.0,-999.0,-999,0.03,,,0.03,,2013-09-15 04:30:00,
2013-09-14 22:55:00,76.0,-99.9,-100.00,North,-999,-999.0,-999.0,-999,0.03,,,0.03,,2013-09-15 04:55:00,
2013-09-14 23:04:00,76.0,-99.9,-100.00,North,-999,-999.0,-999.0,-999,0.03,,,0.03,,2013-09-15 05:04:00,
2013-09-14 23:13:00,76.0,-99.9,-100.00,North,-999,-999.0,-999.0,-999,0.03,,,0.03,,2013-09-15 05:13:00,
2013-09-14 23:23:00,76.0,-99.9,-100.00,North,-999,-999.0,-999.0,-999,0.03,,,0.03,,2013-09-15 05:23:00,
2013-09-14 23:30:00,72.0,-99.9,-100.00,North,-999,-999.0,-999.0,-999,0.00,,,0.04,,2013-09-15 05:30:00,
2013-09-14 23:53:00,72.0,-99.9,-100.00,North,-999,-999.0,-999.0,-999,0.00,,,0.04,,2013-09-15 05:53:00,